Time;durP1;ratioP1;P1;durP2;ratioP2;P2;SDS_P1;SDS_P2;PMS_P1;PMS_P2;Temp;Humidity;BMP_temperature;BMP_pressure;BME280_temperature;BME280_humidity;BME280_pressure;Samples;Min_cycle;Max_cycle;Signal;HPM_P1;HPM_P2
2021/07/22 00:00:19;;;;;;;10.24;6.14;;;;;;;14.67;81.40;99820.91;2016281;78;20923;-77
2021/07/22 00:03:21;;;;;;;11.73;6.93;;;;;;;14.64;81.57;99826.19;2013244;80;20922;-78
2021/07/22 00:06:24;;;;;;;8.89;5.95;;;;;;;14.61;81.73;99828.84;2012876;80;20600;-78
2021/07/22 00:09:26;;;;;;;10.99;6.96;;;;;;;14.60;82.02;99827.13;2012447;80;20238;-78
2021/07/22 00:12:29;;;;;;;7.50;5.60;;;;;;;14.58;82.29;99818.44;2008993;80;21139;-78
2021/07/22 00:15:32;;;;;;;7.70;5.95;;;;;;;14.57;82.72;99814.09;2011891;78;21399;-78
2021/07/22 00:18:34;;;;;;;7.46;5.85;;;;;;;14.57;82.62;99821.06;2012367;80;20192;-77
2021/07/22 00:21:38;;;;;;;9.96;5.80;;;;;;;14.54;82.34;99821.09;2012312;80;20292;-78
2021/07/22 00:24:40;;;;;;;10.41;6.86;;;;;;;14.49;82.41;99822.03;2013007;80;20180;-78
2021/07/22 00:27:43;;;;;;;5.99;5.43;;;;;;;14.48;82.67;99816.81;2012862;80;20176;-78
2021/07/22 00:30:46;;;;;;;10.66;5.91;;;;;;;14.43;83.22;99819.50;2013157;77;24662;-79
2021/07/22 00:33:49;;;;;;;10.88;6.05;;;;;;;14.40;83.42;99816.03;2017779;80;20172;-78
2021/07/22 00:36:52;;;;;;;9.02;6.34;;;;;;;14.37;83.45;99814.34;2017479;80;20195;-78
2021/07/22 00:39:54;;;;;;;11.91;7.00;;;;;;;14.36;83.35;99822.16;2017576;80;20223;-78
2021/07/22 00:43:01;;;;;;;9.69;7.18;;;;;;;14.32;83.25;99817.88;2017284;80;20167;-78
2021/07/22 00:46:04;;;;;;;12.48;7.31;;;;;;;14.27;83.28;99815.31;2014809;78;20206;-78
2021/07/22 00:49:08;;;;;;;12.32;7.25;;;;;;;14.25;83.20;99813.63;2012602;80;20401;-78
2021/07/22 00:52:11;;;;;;;10.82;6.95;;;;;;;14.23;83.31;99818.00;2012485;80;20173;-78
2021/07/22 00:55:18;;;;;;;11.76;6.89;;;;;;;14.14;83.63;99812.00;2013284;80;20172;-78
2021/07/22 00:58:21;;;;;;;10.60;7.38;;;;;;;14.12;83.71;99810.28;2012317;80;20241;-78
2021/07/22 01:01:24;;;;;;;10.68;7.41;;;;;;;14.08;83.57;99808.59;2015026;78;53208;-78
2021/07/22 01:04:27;;;;;;;11.80;7.36;;;;;;;14.06;83.31;99803.41;2016948;80;20393;-77
2021/07/22 01:07:31;;;;;;;12.20;7.10;;;;;;;14.05;83.37;99806.88;2017428;80;20215;-78
2021/07/22 01:10:35;;;;;;;7.40;6.43;;;;;;;14.02;83.50;99800.84;2017561;80;20167;-78
2021/07/22 01:13:38;;;;;;;10.15;6.06;;;;;;;14.01;83.61;99802.59;2017751;80;20191;-77
2021/07/22 01:16:41;;;;;;;8.77;6.16;;;;;;;14.01;83.75;99806.97;2014176;78;22333;-78
2021/07/22 01:19:43;;;;;;;10.70;6.34;;;;;;;13.99;83.94;99800.84;2012658;80;20172;-77
2021/07/22 01:22:47;;;;;;;12.79;7.35;;;;;;;13.96;84.07;99804.38;2012649;80;20265;-77
2021/07/22 01:25:51;;;;;;;9.14;6.51;;;;;;;13.94;83.98;99795.69;2012112;80;20378;-78
2021/07/22 01:28:54;;;;;;;10.05;6.68;;;;;;;13.91;83.98;99798.34;2011722;80;20940;-78
2021/07/22 01:32:03;;;;;;;13.21;6.99;;;;;;;13.88;83.94;99796.63;2012186;77;20760;-78
2021/07/22 01:35:06;;;;;;;11.54;6.85;;;;;;;13.86;83.95;99794.94;2017396;80;20172;-78
2021/07/22 01:38:09;;;;;;;9.04;6.78;;;;;;;13.82;83.95;99799.34;2018114;80;20796;-78
2021/07/22 01:41:12;;;;;;;10.13;6.74;;;;;;;13.78;83.98;99800.22;2017116;80;20237;-78
2021/07/22 01:44:16;;;;;;;10.54;6.56;;;;;;;13.74;84.13;99788.09;2017677;80;20750;-77
2021/07/22 01:47:19;;;;;;;9.15;6.25;;;;;;;13.72;84.29;99789.84;2012800;78;20539;-78
2021/07/22 01:50:23;;;;;;;7.38;6.06;;;;;;;13.71;84.52;99792.50;2012257;80;20210;-78
2021/07/22 01:53:25;;;;;;;8.48;6.01;;;;;;;13.67;84.78;99789.06;2012519;80;20172;-78
2021/07/22 01:56:28;;;;;;;7.32;5.82;;;;;;;13.65;85.07;99795.16;2012420;80;20200;-77
2021/07/22 01:59:37;;;;;;;8.61;5.93;;;;;;;13.64;84.88;99786.44;2012213;80;20169;-77
2021/07/22 02:02:41;;;;;;;7.84;5.81;;;;;;;13.61;84.71;99786.47;2019657;78;20667;-76
2021/07/22 02:05:44;;;;;;;11.77;5.53;;;;;;;13.59;84.69;99796.06;2018220;80;20761;-78
2021/07/22 02:08:47;;;;;;;9.45;6.38;;;;;;;13.57;84.89;99795.22;2019478;80;20179;-77
2021/07/22 02:11:51;;;;;;;10.19;5.80;;;;;;;13.53;84.76;99797.00;2018958;80;20299;-78
2021/07/22 02:14:53;;;;;;;8.74;5.28;;;;;;;13.50;84.81;99799.66;2018806;80;20295;-78
2021/07/22 02:17:56;;;;;;;8.55;6.19;;;;;;;13.47;84.57;99796.22;2014088;78;20214;-79
2021/07/22 02:21:03;;;;;;;10.36;5.90;;;;;;;13.46;84.65;99791.84;2015194;80;20165;-78
2021/07/22 02:24:05;;;;;;;6.70;5.46;;;;;;;13.42;84.63;99798.84;2014103;80;20257;-77
2021/07/22 02:27:08;;;;;;;6.40;5.10;;;;;;;13.39;84.76;99801.50;2014021;80;20209;-78
2021/07/22 02:30:11;;;;;;;5.64;5.05;;;;;;;13.34;84.84;99794.59;2014045;80;20180;-77
2021/07/22 02:33:14;;;;;;;6.80;4.74;;;;;;;13.33;84.91;99792.88;2018979;77;22857;-77
2021/07/22 02:36:19;;;;;;;7.00;4.93;;;;;;;13.30;85.08;99791.16;2019719;80;20279;-77
2021/07/22 02:39:21;;;;;;;6.71;5.24;;;;;;;13.29;85.30;99792.03;2019785;80;20156;-78
2021/07/22 02:42:24;;;;;;;9.27;5.21;;;;;;;13.28;85.28;99795.50;2019170;80;20164;-77
2021/07/22 02:45:26;;;;;;;5.64;5.06;;;;;;;13.28;85.23;99795.50;2018488;78;24346;-78
2021/07/22 02:48:29;;;;;;;5.21;4.71;;;;;;;13.25;85.08;99796.38;2013998;80;20274;-77
2021/07/22 02:51:32;;;;;;;5.78;5.16;;;;;;;13.22;85.06;99801.63;2014746;80;20208;-77
2021/07/22 02:54:35;;;;;;;6.65;5.13;;;;;;;13.19;85.22;99793.84;2014436;80;20172;-78
2021/07/22 02:57:37;;;;;;;6.28;4.99;;;;;;;13.18;85.28;99796.47;2013730;80;20314;-77
2021/07/22 03:00:40;;;;;;;5.01;4.51;;;;;;;13.15;85.32;99799.94;2015171;78;23945;-77
2021/07/22 03:03:43;;;;;;;6.80;4.96;;;;;;;13.11;85.37;99800.84;2018501;80;20183;-77
2021/07/22 03:06:45;;;;;;;5.57;4.84;;;;;;;13.10;85.35;99799.09;2018634;80;20228;-77
2021/07/22 03:09:48;;;;;;;8.68;4.59;;;;;;;13.02;85.25;99795.69;2018523;80;20176;-77
2021/07/22 03:12:52;;;;;;;6.53;4.81;;;;;;;13.00;85.41;99794.84;2017654;80;20199;-77
2021/07/22 03:15:55;;;;;;;8.61;4.89;;;;;;;12.98;85.52;99802.69;2015969;78;20198;-77
2021/07/22 03:18:57;;;;;;;6.95;5.00;;;;;;;12.93;85.43;99801.00;2013466;80;20803;-78
2021/07/22 03:22:00;;;;;;;5.70;4.89;;;;;;;12.88;85.46;99798.41;2013996;80;20168;-78
2021/07/22 03:25:04;;;;;;;7.30;4.51;;;;;;;12.85;85.52;99798.41;2013325;80;20214;-78
2021/07/22 03:28:06;;;;;;;9.90;4.91;;;;;;;12.83;85.52;99794.97;2013377;80;20464;-78
2021/07/22 03:31:09;;;;;;;6.94;5.30;;;;;;;12.83;85.59;99796.72;2014296;77;22580;-78
2021/07/22 03:34:11;;;;;;;6.25;4.96;;;;;;;12.81;85.73;99791.50;2018010;80;20172;-78
2021/07/22 03:37:14;;;;;;;6.18;5.19;;;;;;;12.81;85.76;99801.06;2018851;80;20199;-77
2021/07/22 03:40:17;;;;;;;9.63;4.99;;;;;;;12.80;85.80;99801.94;2018153;80;20295;-77
2021/07/22 03:43:20;;;;;;;11.46;5.76;;;;;;;12.79;85.73;99795.88;2018494;80;20237;-78
2021/07/22 03:46:25;;;;;;;6.94;5.05;;;;;;;12.74;85.68;99794.16;2015324;78;21988;-78
2021/07/22 03:49:28;;;;;;;9.13;5.15;;;;;;;12.73;85.82;99801.09;2013183;80;20173;-77
2021/07/22 03:52:30;;;;;;;5.94;4.39;;;;;;;12.71;85.82;99800.25;2012913;80;20165;-77
2021/07/22 03:55:33;;;;;;;6.15;4.88;;;;;;;12.69;85.76;99786.38;2012956;80;20285;-78
2021/07/22 03:58:37;;;;;;;6.31;5.11;;;;;;;12.67;85.61;99791.59;2012677;80;20164;-78
2021/07/22 04:01:40;;;;;;;6.14;4.69;;;;;;;12.67;85.54;99785.53;2012460;78;21918;-77
2021/07/22 04:04:43;;;;;;;6.09;4.69;;;;;;;12.66;85.45;99783.78;2013262;80;20165;-78
2021/07/22 04:07:45;;;;;;;5.00;4.51;;;;;;;12.64;85.46;99788.16;2013151;80;20662;-79
2021/07/22 04:10:48;;;;;;;6.16;4.88;;;;;;;12.63;85.57;99789.03;2012419;80;20273;-77
2021/07/22 04:13:50;;;;;;;6.21;4.93;;;;;;;12.63;85.61;99797.72;2013719;80;20630;-77
2021/07/22 04:16:53;;;;;;;9.11;4.61;;;;;;;12.64;85.80;99793.38;2015268;78;21473;-77
2021/07/22 04:19:56;;;;;;;7.57;4.80;;;;;;;12.63;85.57;99796.84;2018268;80;20164;-77
2021/07/22 04:22:59;;;;;;;8.16;4.60;;;;;;;12.61;85.72;99794.25;2018493;80;20221;-79
2021/07/22 04:26:02;;;;;;;5.95;4.90;;;;;;;12.65;85.93;99798.56;2018351;80;20207;-77
2021/07/22 04:29:05;;;;;;;5.06;4.51;;;;;;;12.69;85.97;99799.41;2018283;80;20172;-77
2021/07/22 04:32:07;;;;;;;5.68;4.13;;;;;;;12.70;85.92;99793.31;2015849;78;33899;-77
2021/07/22 04:35:11;;;;;;;5.35;4.38;;;;;;;12.74;86.03;99799.34;2013079;80;20718;-77
2021/07/22 04:38:13;;;;;;;5.21;4.68;;;;;;;12.74;86.04;99802.81;2013748;80;20189;-78
2021/07/22 04:41:16;;;;;;;8.86;4.85;;;;;;;12.75;86.05;99806.31;2012420;80;20176;-77
2021/07/22 04:44:18;;;;;;;6.84;4.79;;;;;;;12.77;86.13;99802.84;2013640;80;20198;-77
2021/07/22 04:47:21;;;;;;;7.86;4.86;;;;;;;12.80;86.20;99810.63;2015306;77;20581;-79
2021/07/22 04:50:24;;;;;;;7.06;4.44;;;;;;;12.87;86.22;99801.00;2017878;80;20256;-78
2021/07/22 04:53:27;;;;;;;7.81;4.32;;;;;;;12.95;86.28;99807.06;2018108;80;20176;-77
2021/07/22 04:56:29;;;;;;;7.66;4.99;;;;;;;13.06;86.11;99809.56;2017016;80;20206;-77
2021/07/22 04:59:32;;;;;;;5.13;4.63;;;;;;;13.15;85.89;99812.97;2017594;80;20206;-77
2021/07/22 05:02:34;;;;;;;6.44;4.90;;;;;;;13.27;85.81;99815.50;2014238;78;24874;-77
2021/07/22 05:05:38;;;;;;;6.84;4.78;;;;;;;13.44;85.65;99810.13;2012655;80;20168;-77
2021/07/22 05:08:41;;;;;;;7.59;4.45;;;;;;;13.61;85.32;99820.41;2013087;80;20229;-78
2021/07/22 05:11:43;;;;;;;7.60;5.01;;;;;;;13.76;84.57;99812.44;2012359;80;20675;-77
2021/07/22 05:14:47;;;;;;;5.71;4.21;;;;;;;13.89;84.13;99811.41;2013053;80;20976;-78
2021/07/22 05:17:49;;;;;;;6.19;4.66;;;;;;;14.13;83.71;99819.84;2011553;80;21106;-77
2021/07/22 05:20:52;;;;;;;5.43;4.54;;;;;;;14.44;83.04;99825.59;2012869;80;20152;-77
2021/07/22 05:23:54;;;;;;;4.59;4.19;;;;;;;14.77;81.67;99822.53;2012682;80;20285;-77
2021/07/22 05:26:57;;;;;;;8.31;4.74;;;;;;;15.08;80.43;99824.66;2013253;80;20386;-77
2021/07/22 05:29:59;;;;;;;4.74;4.34;;;;;;;15.42;79.10;99822.34;2012101;80;20833;-76
2021/07/22 05:33:02;;;;;;;8.99;5.01;;;;;;;15.66;77.62;99828.97;2012308;77;21715;-74
2021/07/22 05:36:06;;;;;;;7.06;4.59;;;;;;;15.78;76.76;99828.72;2012351;80;20172;-74
2021/07/22 05:39:11;;;;;;;10.40;4.76;;;;;;;15.88;76.88;99825.03;2012660;80;20168;-74
2021/07/22 05:42:14;;;;;;;6.22;4.64;;;;;;;16.14;76.73;99826.28;2012328;80;20165;-75
2021/07/22 05:45:16;;;;;;;8.39;4.47;;;;;;;16.48;75.93;99829.06;2011784;80;20186;-74
2021/07/22 05:48:19;;;;;;;5.63;4.64;;;;;;;16.89;74.38;99820.34;2020354;77;21208;-75
2021/07/22 05:51:22;;;;;;;5.40;4.60;;;;;;;17.26;73.39;99825.56;2016936;80;20197;-75
2021/07/22 05:54:24;;;;;;;4.85;4.40;;;;;;;17.59;72.21;99829.06;2018152;80;20207;-74
2021/07/22 05:57:28;;;;;;;5.70;4.39;;;;;;;17.81;71.73;99827.66;2017725;80;20176;-75
2021/07/22 06:00:31;;;;;;;6.69;4.47;;;;;;;18.02;71.41;99833.22;2016193;78;20300;-75
2021/07/22 06:03:33;;;;;;;4.97;4.47;;;;;;;18.22;70.41;99825.66;2011691;80;20319;-75
2021/07/22 06:06:37;;;;;;;7.76;4.44;;;;;;;18.43;69.89;99829.41;2010331;80;20373;-75
2021/07/22 06:09:39;;;;;;;4.63;4.21;;;;;;;18.66;69.71;99824.34;2011171;80;20180;-74
2021/07/22 06:12:42;;;;;;;7.35;4.59;;;;;;;18.95;68.42;99831.34;2011124;80;20192;-75
2021/07/22 06:15:48;;;;;;;6.38;4.53;;;;;;;19.25;66.68;99828.66;2011679;80;23096;-75
2021/07/22 06:18:50;;;;;;;9.91;4.81;;;;;;;19.50;66.33;99840.09;2015472;80;20240;-75
2021/07/22 06:21:53;;;;;;;7.11;4.44;;;;;;;19.82;65.41;99831.13;2015508;80;20723;-75
2021/07/22 06:24:56;;;;;;;9.02;5.35;;;;;;;20.09;64.95;99838.94;2016260;80;20750;-73
2021/07/22 06:27:58;;;;;;;4.85;4.03;;;;;;;20.36;64.57;99834.44;2015608;80;20191;-74
2021/07/22 06:31:01;;;;;;;4.41;4.00;;;;;;;20.55;63.88;99830.22;2014122;78;22475;-74
2021/07/22 06:34:04;;;;;;;6.69;4.21;;;;;;;20.71;62.58;99833.16;2012778;80;20160;-74
2021/07/22 06:37:06;;;;;;;9.44;4.38;;;;;;;20.95;61.50;99829.53;2013239;80;20233;-74
2021/07/22 06:40:10;;;;;;;7.16;4.63;;;;;;;21.15;61.04;99822.59;2012561;80;20205;-74
2021/07/22 06:43:13;;;;;;;12.09;4.40;;;;;;;21.35;60.73;99827.94;2011986;80;20176;-74
2021/07/22 06:46:16;;;;;;;6.93;4.59;;;;;;;21.53;60.13;99828.94;2013880;77;20881;-74
2021/07/22 06:49:19;;;;;;;5.09;4.28;;;;;;;21.75;59.27;99826.28;2017930;80;20318;-74
2021/07/22 06:52:21;;;;;;;7.24;4.15;;;;;;;22.02;58.71;99825.06;2017843;80;20192;-74
2021/07/22 06:55:28;;;;;;;9.79;4.18;;;;;;;22.20;57.08;99826.06;2017862;80;20180;-75
2021/07/22 06:58:30;;;;;;;7.76;4.43;;;;;;;22.34;55.59;99820.13;2018103;80;20644;-74
2021/07/22 07:01:33;;;;;;;8.24;4.18;;;;;;;22.42;55.52;99824.13;2017307;77;21547;-75
2021/07/22 07:04:36;;;;;;;8.89;4.36;;;;;;;22.63;55.30;99821.44;2017940;80;20628;-74
2021/07/22 07:07:39;;;;;;;7.25;4.41;;;;;;;22.77;54.87;99821.63;2018056;80;20197;-74
2021/07/22 07:10:41;;;;;;;9.04;4.31;;;;;;;22.91;55.62;99822.72;2017771;80;20215;-75
2021/07/22 07:13:46;;;;;;;9.65;3.65;;;;;;;23.06;54.54;99826.44;2018310;80;20199;-75
2021/07/22 07:16:50;;;;;;;8.68;4.71;;;;;;;23.33;53.57;99826.00;2017123;77;20584;-75
2021/07/22 07:19:52;;;;;;;7.93;3.86;;;;;;;23.38;52.22;99824.00;2018080;80;20172;-75
2021/07/22 07:22:56;;;;;;;7.96;4.16;;;;;;;23.56;51.77;99822.22;2017778;80;20279;-73
2021/07/22 07:26:00;;;;;;;9.13;4.31;;;;;;;23.70;51.28;99820.63;2013714;80;20644;-76
2021/07/22 07:29:02;;;;;;;9.85;4.35;;;;;;;23.82;50.95;99819.09;2018442;80;20160;-76
2021/07/22 07:32:05;;;;;;;9.68;4.50;;;;;;;23.95;51.57;99830.78;2017118;77;21960;-75
2021/07/22 07:35:08;;;;;;;13.13;5.06;;;;;;;23.99;50.68;99823.53;2017730;80;20245;-75
2021/07/22 07:38:11;;;;;;;14.09;7.69;;;;;;;24.02;50.11;99826.00;2017912;80;20214;-75
2021/07/22 07:41:13;;;;;;;13.81;8.55;;;;;;;24.07;50.37;99826.66;2018099;80;20348;-74
2021/07/22 07:44:16;;;;;;;14.21;7.91;;;;;;;24.34;50.75;99817.22;2017579;80;20169;-75
2021/07/22 07:47:19;;;;;;;19.15;7.94;;;;;;;24.59;49.32;99821.19;2013018;78;22310;-75
2021/07/22 07:50:21;;;;;;;12.30;6.85;;;;;;;24.64;47.50;99822.66;2012709;80;20879;-76
2021/07/22 07:53:24;;;;;;;19.50;6.70;;;;;;;24.81;47.88;99819.06;2013627;80;20198;-75
2021/07/22 07:56:27;;;;;;;21.71;11.15;;;;;;;24.91;46.96;99817.59;2013269;80;20995;-76
2021/07/22 07:59:30;;;;;;;26.05;13.55;;;;;;;25.05;47.17;99813.34;2013452;80;20200;-76
2021/07/22 08:02:33;;;;;;;23.44;10.89;;;;;;;25.21;47.61;99812.38;2018462;77;26261;-74
2021/07/22 08:05:38;;;;;;;24.39;13.06;;;;;;;25.35;47.45;99808.06;2017275;80;20289;-73
2021/07/22 08:08:42;;;;;;;21.45;10.14;;;;;;;25.42;47.31;99804.94;2018000;80;20670;-73
2021/07/22 08:11:44;;;;;;;20.38;7.75;;;;;;;25.60;47.12;99810.97;2017920;80;20219;-74
2021/07/22 08:14:47;;;;;;;14.29;6.90;;;;;;;25.73;46.85;99809.34;2017151;80;20207;-74
2021/07/22 08:17:49;;;;;;;12.69;7.13;;;;;;;25.80;46.35;99808.00;2012318;80;21120;-74
2021/07/22 08:20:52;;;;;;;10.98;5.14;;;;;;;25.92;46.19;99814.41;2012067;80;20200;-74
2021/07/22 08:23:55;;;;;;;17.44;7.19;;;;;;;26.06;45.98;99811.75;2012633;80;20645;-74
2021/07/22 08:26:57;;;;;;;12.14;6.21;;;;;;;26.21;45.27;99807.25;2012299;80;20199;-73
2021/07/22 08:30:00;;;;;;;9.76;6.22;;;;;;;26.41;45.01;99809.59;2013242;80;20224;-74
2021/07/22 08:33:03;;;;;;;17.65;6.54;;;;;;;26.53;44.48;99810.59;2012477;78;25274;-74
2021/07/22 08:36:06;;;;;;;15.38;7.47;;;;;;;26.62;44.40;99814.50;2011984;80;20187;-74
2021/07/22 08:39:09;;;;;;;14.34;5.31;;;;;;;26.72;44.26;99807.63;2012168;80;20176;-74
2021/07/22 08:42:12;;;;;;;10.51;5.49;;;;;;;26.64;41.46;99808.13;2012047;80;20176;-74
2021/07/22 08:45:16;;;;;;;5.57;4.13;;;;;;;26.66;42.26;99802.69;2012490;80;20208;-74
2021/07/22 08:48:20;;;;;;;5.78;3.86;;;;;;;26.86;43.26;99806.72;2016565;78;22705;-74
2021/07/22 08:51:25;;;;;;;9.21;4.84;;;;;;;27.05;43.28;99797.47;2016797;80;20568;-74
2021/07/22 08:54:28;;;;;;;18.44;11.34;;;;;;;27.17;42.94;99802.97;2017882;80;20184;-74
2021/07/22 08:57:33;;;;;;;8.27;5.40;;;;;;;27.22;42.41;99800.81;2016536;80;20855;-74
2021/07/22 09:00:36;;;;;;;8.60;5.65;;;;;;;27.40;42.77;99802.25;2015371;79;21002;-76
2021/07/22 09:03:39;;;;;;;7.90;5.00;;;;;;;27.42;41.61;99797.69;2011804;80;20184;-74
2021/07/22 09:06:58;;;;;;;11.44;5.85;;;;;;;27.49;40.08;99795.47;2011398;80;20192;-74
2021/07/22 09:10:04;;;;;;;7.34;5.51;;;;;;;27.60;40.50;99793.75;2012585;80;20719;-73
2021/07/22 09:13:23;;;;;;;8.31;3.84;;;;;;;27.80;42.42;99794.25;2012192;80;20761;-74
2021/07/22 09:16:36;;;;;;;3.95;3.55;;;;;;;27.95;41.99;99799.38;2015109;78;28508;-75
2021/07/22 09:19:40;;;;;;;7.38;3.05;;;;;;;28.04;41.51;99791.69;2016850;80;20286;-74
2021/07/22 09:22:43;;;;;;;5.06;3.49;;;;;;;28.12;40.84;99797.34;2016989;80;20168;-76
2021/07/22 09:25:48;;;;;;;5.99;3.59;;;;;;;28.18;39.75;99788.88;2017017;80;20719;-74
2021/07/22 09:29:03;;;;;;;6.34;2.76;;;;;;;28.21;39.78;99791.38;2016765;80;20205;-74
2021/07/22 09:32:06;;;;;;;3.30;2.67;;;;;;;28.22;39.56;99788.59;2013933;78;31783;-74
2021/07/22 09:35:17;;;;;;;4.32;2.81;;;;;;;28.34;40.08;99784.19;2011272;80;20215;-74
2021/07/22 09:38:25;;;;;;;5.01;3.16;;;;;;;28.39;39.71;99786.56;2011400;80;20889;-75
2021/07/22 09:41:28;;;;;;;8.02;2.85;;;;;;;28.52;39.41;99785.53;2012151;80;21013;-75
2021/07/22 09:44:35;;;;;;;5.70;3.10;;;;;;;28.66;39.55;99783.69;2010818;80;20643;-76
2021/07/22 09:47:38;;;;;;;9.05;3.22;;;;;;;28.76;39.37;99785.59;2014556;78;21945;-75
2021/07/22 09:50:44;;;;;;;6.84;3.04;;;;;;;28.79;38.72;99781.84;2016939;80;20719;-74
2021/07/22 09:54:05;;;;;;;7.10;2.78;;;;;;;28.82;37.88;99786.97;2016696;80;20175;-74
2021/07/22 09:57:19;;;;;;;8.69;3.24;;;;;;;28.78;38.54;99788.16;2017327;80;20195;-74
2021/07/22 10:00:24;;;;;;;9.63;3.17;;;;;;;28.71;37.94;99779.72;2015466;80;20653;-74
2021/07/22 10:03:28;;;;;;;6.63;3.39;;;;;;;28.57;37.05;99779.88;2012105;80;20226;-74
2021/07/22 10:06:33;;;;;;;3.74;3.24;;;;;;;27.89;36.89;99782.94;2011587;80;20169;-74
2021/07/22 10:09:37;;;;;;;4.01;3.61;;;;;;;27.54;39.43;99777.31;2012174;80;20190;-73
2021/07/22 10:12:48;;;;;;;6.94;4.06;;;;;;;27.19;40.01;99774.38;2012658;80;20268;-73
2021/07/22 10:15:51;;;;;;;4.29;3.76;;;;;;;26.83;40.02;99778.47;2012139;77;20226;-74
2021/07/22 10:18:58;;;;;;;5.20;3.94;;;;;;;26.52;41.39;99766.28;2019663;80;20179;-73
2021/07/22 10:22:03;;;;;;;4.16;3.84;;;;;;;26.27;41.26;99769.63;2017246;80;20229;-73
2021/07/22 10:25:06;;;;;;;5.10;3.76;;;;;;;26.03;43.04;99766.69;2016872;80;20211;-72
2021/07/22 10:28:10;;;;;;;3.80;3.50;;;;;;;25.84;43.60;99766.94;2016952;80;20172;-73
2021/07/22 10:31:13;;;;;;;4.26;3.86;;;;;;;26.08;46.86;99761.09;2016219;77;22593;-74
2021/07/22 10:34:17;;;;;;;3.88;3.58;;;;;;;26.71;44.14;99748.16;2017451;80;20227;-73
2021/07/22 10:37:20;;;;;;;8.00;3.90;;;;;;;27.18;38.90;99754.84;2016835;80;20204;-73
2021/07/22 10:40:42;;;;;;;4.24;3.79;;;;;;;27.16;39.71;99759.44;2017908;80;20577;-73
2021/07/22 10:43:46;;;;;;;4.39;3.58;;;;;;;27.12;41.98;99749.09;2017945;80;20517;-74
2021/07/22 10:46:57;;;;;;;4.82;3.25;;;;;;;27.48;41.53;99757.28;2013220;78;23249;-75
2021/07/22 10:50:00;;;;;;;7.04;4.03;;;;;;;27.83;39.96;99751.31;2013394;80;20272;-73
2021/07/22 10:53:04;;;;;;;7.29;3.76;;;;;;;28.03;39.10;99745.47;2012653;80;21042;-73
2021/07/22 10:56:33;;;;;;;4.40;4.00;;;;;;;28.40;37.96;99740.19;2012024;80;20172;-73
2021/07/22 10:59:53;;;;;;;4.57;3.74;;;;;;;28.69;37.06;99738.88;2009152;80;20626;-73
2021/07/22 11:02:56;;;;;;;4.07;3.69;;;;;;;28.96;37.18;99738.69;2018689;78;24053;-73
2021/07/22 11:06:00;;;;;;;5.16;3.61;;;;;;;29.08;36.10;99735.09;2017773;80;20237;-72
2021/07/22 11:09:07;;;;;;;4.50;3.51;;;;;;;29.25;35.38;99732.97;2017307;80;20167;-73
2021/07/22 11:12:30;;;;;;;4.25;3.46;;;;;;;29.07;35.64;99737.88;2016980;80;20180;-73
2021/07/22 11:15:36;;;;;;;4.21;3.75;;;;;;;29.11;36.81;99734.88;2016554;78;21418;-73
2021/07/22 11:18:59;;;;;;;3.72;3.42;;;;;;;28.98;35.63;99730.56;2017160;80;20279;-73
2021/07/22 11:22:04;;;;;;;6.01;3.60;;;;;;;29.25;37.28;99727.59;2014194;80;20183;-73
2021/07/22 11:25:09;;;;;;;4.39;3.72;;;;;;;29.19;36.20;99731.59;2017086;80;20172;-73
2021/07/22 11:28:14;;;;;;;3.97;3.53;;;;;;;28.72;35.43;99730.63;2017805;80;20220;-72
2021/07/22 11:31:16;;;;;;;4.93;3.71;;;;;;;28.72;36.99;99724.44;2013464;78;20735;-72
2021/07/22 11:34:40;;;;;;;6.91;3.51;;;;;;;28.59;36.00;99730.72;2011975;80;20165;-75
2021/07/22 11:37:43;;;;;;;4.53;3.53;;;;;;;28.58;36.38;99707.63;2012053;80;20202;-74
2021/07/22 11:40:45;;;;;;;3.95;3.65;;;;;;;28.79;37.86;99710.53;2011636;80;20647;-73
2021/07/22 11:43:53;;;;;;;4.85;3.36;;;;;;;28.93;36.40;99706.84;2011968;80;20272;-73
2021/07/22 11:46:56;;;;;;;4.65;3.81;;;;;;;29.06;36.47;99707.59;2014446;78;21351;-72
2021/07/22 11:50:00;;;;;;;4.91;3.39;;;;;;;29.46;37.00;99708.13;2016670;80;20769;-73
2021/07/22 11:53:20;;;;;;;8.51;3.80;;;;;;;29.86;36.65;99706.84;2017720;80;20160;-73
2021/07/22 11:56:23;;;;;;;3.89;3.50;;;;;;;29.87;36.21;99713.88;2016792;80;21187;-72
2021/07/22 11:59:30;;;;;;;4.18;3.79;;;;;;;30.07;35.26;99706.00;2016910;80;20197;-72
2021/07/22 12:02:33;;;;;;;4.43;3.29;;;;;;;29.63;33.57;99704.16;2011180;78;21256;-74
2021/07/22 12:05:36;;;;;;;3.81;3.50;;;;;;;29.37;35.32;99698.09;2011946;80;20202;-74
2021/07/22 12:08:39;;;;;;;4.18;3.69;;;;;;;29.32;35.49;99696.75;2011434;80;20173;-74
2021/07/22 12:11:47;;;;;;;4.26;3.74;;;;;;;29.04;36.20;99688.16;2012295;80;20173;-74
2021/07/22 12:14:49;;;;;;;6.60;4.13;;;;;;;29.00;36.86;99685.84;2011875;80;20192;-75
2021/07/22 12:17:52;;;;;;;3.91;3.50;;;;;;;29.13;34.08;99684.78;2015617;80;24438;-74
2021/07/22 12:20:55;;;;;;;4.59;4.22;;;;;;;29.24;34.69;99675.06;2017323;80;20738;-74
2021/07/22 12:24:19;;;;;;;6.14;4.15;;;;;;;29.34;34.10;99674.25;2016886;80;20183;-74
2021/07/22 12:27:42;;;;;;;4.30;3.70;;;;;;;29.58;34.78;99666.16;2016880;80;20175;-74
2021/07/22 12:30:44;;;;;;;5.32;3.90;;;;;;;29.96;35.13;99662.25;2014894;78;22881;-74
2021/07/22 12:34:00;;;;;;;7.00;3.97;;;;;;;30.36;35.55;99668.81;2012133;80;20626;-74
2021/07/22 12:37:03;;;;;;;4.94;3.81;;;;;;;30.52;33.35;99660.38;2011371;80;20201;-73
2021/07/22 12:40:09;;;;;;;7.04;3.90;;;;;;;30.01;33.01;99663.63;2012030;80;20194;-73
2021/07/22 12:43:20;;;;;;;6.70;3.84;;;;;;;29.45;33.78;99660.94;2012292;80;20192;-75
2021/07/22 12:46:23;;;;;;;4.29;3.79;;;;;;;28.88;35.69;99659.06;2013306;77;20183;-75
2021/07/22 12:49:42;;;;;;;4.25;3.95;;;;;;;28.74;36.85;99650.38;2017249;80;20588;-75
2021/07/22 12:52:51;;;;;;;4.18;3.88;;;;;;;28.57;36.38;99646.28;2017070;80;20176;-75
2021/07/22 12:56:00;;;;;;;5.54;3.88;;;;;;;28.48;38.00;99647.81;2017683;80;20679;-75
2021/07/22 12:59:09;;;;;;;7.75;3.84;;;;;;;28.52;34.34;99640.41;2016592;80;20955;-74
2021/07/22 13:02:26;;;;;;;6.43;3.64;;;;;;;28.67;35.02;99635.72;2012625;78;21919;-74
2021/07/22 13:05:28;;;;;;;4.81;4.40;;;;;;;29.17;36.05;99635.44;2011197;80;20233;-75
2021/07/22 13:08:31;;;;;;;5.96;4.34;;;;;;;29.43;34.80;99633.41;2011410;80;20189;-74
2021/07/22 13:11:34;;;;;;;4.70;4.03;;;;;;;29.66;34.02;99628.94;2011648;80;20221;-74
2021/07/22 13:14:37;;;;;;;5.32;4.14;;;;;;;29.98;35.14;99634.41;2011314;80;20184;-74
2021/07/22 13:17:39;;;;;;;4.24;3.91;;;;;;;30.23;34.97;99637.78;2014627;77;20925;-74
2021/07/22 13:20:42;;;;;;;5.29;4.26;;;;;;;30.23;33.41;99627.94;2019662;80;20220;-74
2021/07/22 13:23:45;;;;;;;4.50;4.10;;;;;;;30.20;32.19;99627.34;2016605;80;20203;-74
2021/07/22 13:26:51;;;;;;;4.71;4.31;;;;;;;30.35;33.04;99626.06;2016154;80;20292;-74
2021/07/22 13:29:54;;;;;;;6.41;4.50;;;;;;;30.45;32.56;99620.78;2016424;80;20248;-74
2021/07/22 13:32:58;;;;;;;4.49;4.10;;;;;;;30.50;32.33;99610.53;2018353;78;24859;-74
2021/07/22 13:36:01;;;;;;;4.90;4.50;;;;;;;30.72;33.90;99607.81;2016618;80;20721;-73
2021/07/22 13:39:04;;;;;;;4.55;4.16;;;;;;;30.94;33.49;99613.03;2015856;80;20530;-74
2021/07/22 13:42:07;;;;;;;7.95;4.35;;;;;;;30.76;32.47;99606.56;2016126;80;20245;-74
2021/07/22 13:45:10;;;;;;;4.95;4.40;;;;;;;30.68;32.08;99599.13;2015491;80;20229;-74
2021/07/22 13:48:12;;;;;;;5.89;4.82;;;;;;;30.84;32.73;99601.38;2011151;78;20249;-74
2021/07/22 13:51:15;;;;;;;5.61;4.60;;;;;;;30.96;32.91;99602.16;2011386;80;20172;-74
2021/07/22 13:54:17;;;;;;;4.34;3.94;;;;;;;31.04;32.88;99593.47;2010098;80;20247;-74
2021/07/22 13:57:20;;;;;;;7.39;4.10;;;;;;;31.20;32.10;99591.19;2010964;80;20184;-74
2021/07/22 14:00:22;;;;;;;6.78;4.41;;;;;;;31.26;32.53;99593.34;2009989;78;26999;-75
2021/07/22 14:03:25;;;;;;;5.50;4.84;;;;;;;30.92;32.35;99592.69;2010690;80;20647;-74
2021/07/22 14:06:28;;;;;;;4.93;4.53;;;;;;;30.55;32.38;99586.91;2011587;80;20173;-74
2021/07/22 14:09:30;;;;;;;5.94;4.51;;;;;;;30.16;32.83;99586.53;2010902;80;20229;-75
2021/07/22 14:12:33;;;;;;;5.10;4.46;;;;;;;29.71;34.42;99583.06;2011038;80;20194;-74
2021/07/22 14:15:36;;;;;;;11.84;4.79;;;;;;;29.29;35.68;99584.66;2011040;78;25384;-74
2021/07/22 14:18:38;;;;;;;6.36;4.86;;;;;;;29.19;34.49;99582.66;2016694;80;20203;-74
2021/07/22 14:21:41;;;;;;;7.39;4.49;;;;;;;29.38;35.32;99573.19;2017368;80;20172;-74
2021/07/22 14:24:43;;;;;;;5.79;4.61;;;;;;;29.58;36.29;99574.31;2016391;80;20191;-74